Time;durP1;ratioP1;P1;durP2;ratioP2;P2;SDS_P1;SDS_P2;PMS_P1;PMS_P2;Temp;Humidity;BMP_temperature;BMP_pressure;BME280_temperature;BME280_humidity;BME280_pressure;Samples;Min_cycle;Max_cycle;Signal;HPM_P1;HPM_P2
2023/03/09 00:00:08;;;;;;;;;;;1.90;99.90;;;;;;5019571;28;209072;-73
2023/03/09 00:02:34;;;;;;;;;;;1.90;99.90;;;;;;5055455;28;19933;-74
2023/03/09 00:05:00;;;;;;;;;;;1.90;99.90;;;;;;4995618;28;181485;-72
2023/03/09 00:07:30;;;;;;;;;;;1.90;99.90;;;;;;5070093;28;20384;-74
2023/03/09 00:09:56;;;;;;;;;;;1.90;99.90;;;;;;5026656;28;211813;-73
2023/03/09 00:12:22;;;;;;;;;;;1.90;99.90;;;;;;5082862;28;19935;-75
2023/03/09 00:14:52;;;;;;;;;;;1.90;99.90;;;;;;5000211;28;149488;-73
2023/03/09 00:17:18;;;;;;;;;;;1.90;99.90;;;;;;5045121;28;19924;-73
2023/03/09 00:19:44;;;;;;;;;;;1.90;99.90;;;;;;4999586;28;207056;-73
2023/03/09 00:22:10;;;;;;;;;;;1.90;99.90;;;;;;5058181;28;20672;-73
2023/03/09 00:24:35;;;;;;;;;;;1.90;99.90;;;;;;5016697;28;209995;-73
2023/03/09 00:27:02;;;;;;;;;;;1.80;99.90;;;;;;5078896;28;19931;-74
2023/03/09 00:29:29;;;;;;;;;;;1.80;99.90;;;;;;5008762;28;213871;-73
2023/03/09 00:31:56;;;;;;;;;;;1.80;99.90;;;;;;5064656;28;19920;-74
2023/03/09 00:34:22;;;;;;;;;;;1.80;99.90;;;;;;5004801;28;188283;-73
2023/03/09 00:36:49;;;;;;;;;;;1.70;99.90;;;;;;5072217;28;19928;-74
2023/03/09 00:39:15;;;;;;;;;;;1.80;99.90;;;;;;5034392;28;57076;-74
2023/03/09 00:41:41;;;;;;;;;;;1.70;99.90;;;;;;5074475;28;19924;-73
2023/03/09 00:44:08;;;;;;;;;;;1.70;99.90;;;;;;5019077;28;206912;-73
2023/03/09 00:46:34;;;;;;;;;;;1.60;99.90;;;;;;5054605;28;20301;-73
2023/03/09 00:49:02;;;;;;;;;;;1.70;99.90;;;;;;5009426;28;208037;-73
2023/03/09 00:51:28;;;;;;;;;;;1.70;99.90;;;;;;5060664;28;19928;-73
2023/03/09 00:53:54;;;;;;;;;;;1.60;99.90;;;;;;5004140;28;207353;-73
2023/03/09 00:56:21;;;;;;;;;;;1.60;99.90;;;;;;5033444;28;20006;-74
2023/03/09 00:58:47;;;;;;;;;;;1.60;99.90;;;;;;5011387;28;206866;-74
2023/03/09 01:01:14;;;;;;;;;;;1.60;99.90;;;;;;5050485;28;19961;-74
2023/03/09 01:03:40;;;;;;;;;;;1.60;99.90;;;;;;4992442;28;212815;-73
2023/03/09 01:06:06;;;;;;;;;;;1.60;99.90;;;;;;5077087;28;19927;-74
2023/03/09 01:08:32;;;;;;;;;;;1.60;99.90;;;;;;5055109;28;207304;-73
2023/03/09 01:10:59;;;;;;;;;;;1.60;99.90;;;;;;5035233;28;209374;-74
2023/03/09 01:13:25;;;;;;;;;;;1.50;99.90;;;;;;5065198;28;20661;-74
2023/03/09 01:15:51;;;;;;;;;;;1.50;99.90;;;;;;5005056;28;207723;-74
2023/03/09 01:18:17;;;;;;;;;;;1.50;99.90;;;;;;5055505;28;19921;-73
2023/03/09 01:20:43;;;;;;;;;;;1.50;99.90;;;;;;4992658;28;209158;-74
2023/03/09 01:23:09;;;;;;;;;;;1.60;99.90;;;;;;5063706;28;19936;-74
2023/03/09 01:25:35;;;;;;;;;;;1.50;99.90;;;;;;5035173;28;209774;-74
2023/03/09 01:28:01;;;;;;;;;;;1.50;99.90;;;;;;5078545;28;19939;-74
2023/03/09 01:30:26;;;;;;;;;;;1.50;99.90;;;;;;5023269;28;208382;-74
2023/03/09 01:32:53;;;;;;;;;;;1.50;99.90;;;;;;5071119;28;19920;-73
2023/03/09 01:35:19;;;;;;;;;;;1.50;99.90;;;;;;4994399;28;208989;-74
2023/03/09 01:37:45;;;;;;;;;;;1.50;99.90;;;;;;5064978;28;20413;-72
2023/03/09 01:40:19;;;;;;;;;;;1.50;99.90;;;;;;5022025;28;206510;-72
2023/03/09 01:42:53;;;;;;;;;;;1.40;99.90;;;;;;5067216;28;19924;-73
2023/03/09 01:45:18;;;;;;;;;;;1.50;99.90;;;;;;4981366;28;212609;-73
2023/03/09 01:47:45;;;;;;;;;;;1.40;99.90;;;;;;5063541;28;19920;-74
2023/03/09 01:50:11;;;;;;;;;;;1.40;99.90;;;;;;4986312;28;79760;-73
2023/03/09 01:52:38;;;;;;;;;;;1.50;99.90;;;;;;5058171;28;19920;-73
2023/03/09 01:55:07;;;;;;;;;;;1.40;99.90;;;;;;5009349;28;205327;-74
2023/03/09 01:57:34;;;;;;;;;;;1.40;99.90;;;;;;5086230;28;19920;-74
2023/03/09 02:00:05;;;;;;;;;;;1.40;99.90;;;;;;5018076;28;230443;-74
2023/03/09 02:02:33;;;;;;;;;;;1.40;99.90;;;;;;5055112;28;20416;-74
2023/03/09 02:05:03;;;;;;;;;;;1.30;99.90;;;;;;4987369;28;205331;-74
2023/03/09 02:07:30;;;;;;;;;;;1.30;99.90;;;;;;5084496;28;19935;-74
2023/03/09 02:10:18;;;;;;;;;;;1.30;99.90;;;;;;4992945;28;206560;-73
2023/03/09 02:12:47;;;;;;;;;;;1.20;99.90;;;;;;5055057;28;19924;-73
2023/03/09 02:15:12;;;;;;;;;;;1.20;99.90;;;;;;5000588;28;207055;-74
2023/03/09 02:17:38;;;;;;;;;;;1.20;99.90;;;;;;5057753;28;19928;-74
2023/03/09 02:20:10;;;;;;;;;;;1.20;99.90;;;;;;5010774;28;207025;-73
2023/03/09 02:22:37;;;;;;;;;;;1.20;99.90;;;;;;5065155;28;19931;-73
2023/03/09 02:25:06;;;;;;;;;;;1.20;99.90;;;;;;5012604;28;213462;-73
2023/03/09 02:27:33;;;;;;;;;;;1.20;99.90;;;;;;5062356;28;19920;-74
2023/03/09 02:29:59;;;;;;;;;;;1.20;99.90;;;;;;5004507;28;210343;-73
2023/03/09 02:32:25;;;;;;;;;;;1.20;99.90;;;;;;5059451;28;20334;-73
2023/03/09 02:34:51;;;;;;;;;;;1.10;99.90;;;;;;4993237;28;206625;-73
2023/03/09 02:37:29;;;;;;;;;;;1.10;99.90;;;;;;5054114;28;19942;-74
2023/03/09 02:39:56;;;;;;;;;;;1.20;99.90;;;;;;5001878;28;206415;-74
2023/03/09 02:42:23;;;;;;;;;;;1.00;99.90;;;;;;5033824;28;19932;-74
2023/03/09 02:44:49;;;;;;;;;;;1.10;99.90;;;;;;4998430;28;180947;-74
2023/03/09 02:47:18;;;;;;;;;;;1.00;99.90;;;;;;5049415;28;20374;-73
2023/03/09 02:49:43;;;;;;;;;;;1.10;99.90;;;;;;5010817;28;211550;-73
2023/03/09 02:52:09;;;;;;;;;;;1.10;99.90;;;;;;5052678;28;19924;-73
2023/03/09 02:54:35;;;;;;;;;;;1.10;99.90;;;;;;5020250;28;207881;-75
2023/03/09 02:57:02;;;;;;;;;;;1.00;99.90;;;;;;5063450;28;20401;-74
2023/03/09 02:59:27;;;;;;;;;;;1.00;99.90;;;;;;4992226;28;206480;-75
2023/03/09 03:01:53;;;;;;;;;;;1.00;99.90;;;;;;5035916;28;19930;-72
2023/03/09 03:04:19;;;;;;;;;;;1.00;99.90;;;;;;4987391;28;197501;-74
2023/03/09 03:06:45;;;;;;;;;;;1.00;99.90;;;;;;5053827;28;19924;-74
2023/03/09 03:09:11;;;;;;;;;;;1.10;99.90;;;;;;4997235;28;207233;-74
2023/03/09 03:11:37;;;;;;;;;;;1.00;99.90;;;;;;5035471;28;19972;-74
2023/03/09 03:14:03;;;;;;;;;;;1.00;99.90;;;;;;5005883;28;210551;-74
2023/03/09 03:16:29;;;;;;;;;;;1.00;99.90;;;;;;5044713;28;19924;-74
2023/03/09 03:18:55;;;;;;;;;;;1.10;99.90;;;;;;5001822;28;234137;-74
2023/03/09 03:21:21;;;;;;;;;;;1.00;99.90;;;;;;5061430;28;19971;-74
2023/03/09 03:23:46;;;;;;;;;;;1.00;99.90;;;;;;4994046;28;206626;-72
2023/03/09 03:26:12;;;;;;;;;;;1.00;99.90;;;;;;5073376;28;19938;-74
2023/03/09 03:28:38;;;;;;;;;;;1.10;99.90;;;;;;5026871;28;209071;-74
2023/03/09 03:31:04;;;;;;;;;;;1.00;99.90;;;;;;5093970;28;19954;-73
2023/03/09 03:33:30;;;;;;;;;;;1.00;99.90;;;;;;5059517;28;207178;-73
2023/03/09 03:35:56;;;;;;;;;;;1.00;99.90;;;;;;5042422;28;48662;-73
2023/03/09 03:38:22;;;;;;;;;;;1.00;99.90;;;;;;5078438;28;20415;-74
2023/03/09 03:40:48;;;;;;;;;;;1.00;99.90;;;;;;5030127;28;207444;-73
2023/03/09 03:43:14;;;;;;;;;;;1.00;99.90;;;;;;5080136;28;19920;-72
2023/03/09 03:45:40;;;;;;;;;;;1.00;99.90;;;;;;4991950;28;208100;-73
2023/03/09 03:48:06;;;;;;;;;;;0.90;99.90;;;;;;5057124;28;19920;-73
2023/03/09 03:50:32;;;;;;;;;;;1.00;99.90;;;;;;5000999;28;209119;-72
2023/03/09 03:52:58;;;;;;;;;;;0.90;99.90;;;;;;5060076;28;20259;-73
2023/03/09 03:55:24;;;;;;;;;;;0.90;99.90;;;;;;4990930;28;178925;-73
2023/03/09 03:57:50;;;;;;;;;;;0.90;99.90;;;;;;5043070;28;19943;-74
2023/03/09 04:00:18;;;;;;;;;;;1.00;99.90;;;;;;5009890;28;207067;-72
2023/03/09 04:02:44;;;;;;;;;;;0.90;99.90;;;;;;5064288;28;19921;-73
2023/03/09 04:05:10;;;;;;;;;;;1.00;99.90;;;;;;4989713;28;208338;-74
2023/03/09 04:07:36;;;;;;;;;;;1.00;99.90;;;;;;5057494;28;20308;-73
2023/03/09 04:10:03;;;;;;;;;;;0.90;99.90;;;;;;5005447;28;102185;-74
2023/03/09 04:12:29;;;;;;;;;;;0.90;99.90;;;;;;5047728;28;19929;-74
2023/03/09 04:14:55;;;;;;;;;;;1.00;99.90;;;;;;5001838;28;209261;-73
2023/03/09 04:17:21;;;;;;;;;;;1.00;99.90;;;;;;5060442;28;20236;-74
2023/03/09 04:19:47;;;;;;;;;;;1.00;99.90;;;;;;5007434;28;213060;-73
2023/03/09 04:22:13;;;;;;;;;;;0.90;99.90;;;;;;5072354;28;19928;-73
2023/03/09 04:24:39;;;;;;;;;;;1.00;99.90;;;;;;5026412;28;204482;-74
2023/03/09 04:27:05;;;;;;;;;;;1.00;99.90;;;;;;5077739;28;19924;-73
2023/03/09 04:29:31;;;;;;;;;;;0.90;99.90;;;;;;5012914;28;189108;-73
2023/03/09 04:31:56;;;;;;;;;;;0.90;99.90;;;;;;5065509;28;20446;-74
2023/03/09 04:34:22;;;;;;;;;;;0.90;99.90;;;;;;5022586;28;208466;-73
2023/03/09 04:36:48;;;;;;;;;;;0.90;99.90;;;;;;5061585;28;19971;-73
2023/03/09 04:39:14;;;;;;;;;;;1.00;99.90;;;;;;5006284;28;207181;-74
2023/03/09 04:41:40;;;;;;;;;;;0.90;99.90;;;;;;5076448;28;19931;-73
2023/03/09 04:44:06;;;;;;;;;;;0.90;99.90;;;;;;5051139;28;98536;-73
2023/03/09 04:46:32;;;;;;;;;;;0.90;99.90;;;;;;5084350;28;19946;-72
2023/03/09 04:48:58;;;;;;;;;;;0.90;99.90;;;;;;5021755;28;207839;-73
2023/03/09 04:51:24;;;;;;;;;;;0.90;99.90;;;;;;5024163;28;20308;-74
2023/03/09 04:53:50;;;;;;;;;;;0.90;99.90;;;;;;5006318;28;209088;-73
2023/03/09 04:56:16;;;;;;;;;;;0.80;99.90;;;;;;5064003;28;19924;-73
2023/03/09 04:58:42;;;;;;;;;;;0.90;99.90;;;;;;5004402;28;207335;-73
2023/03/09 05:01:08;;;;;;;;;;;0.90;99.90;;;;;;5064618;28;19931;-73
2023/03/09 05:03:34;;;;;;;;;;;0.90;99.90;;;;;;5023455;28;209319;-74
2023/03/09 05:06:00;;;;;;;;;;;0.80;99.90;;;;;;5049454;28;157057;-73
2023/03/09 05:08:26;;;;;;;;;;;0.90;99.90;;;;;;5083263;28;20301;-73
2023/03/09 05:10:51;;;;;;;;;;;0.90;99.90;;;;;;5018034;28;209112;-72
2023/03/09 05:13:17;;;;;;;;;;;0.90;99.90;;;;;;5074950;28;20312;-73
2023/03/09 05:15:43;;;;;;;;;;;0.90;99.90;;;;;;4983875;28;204393;-73
2023/03/09 05:18:11;;;;;;;;;;;1.00;99.90;;;;;;5070658;28;19951;-73
2023/03/09 05:20:37;;;;;;;;;;;0.90;99.90;;;;;;5033078;28;205841;-73
2023/03/09 05:23:03;;;;;;;;;;;0.90;99.90;;;;;;5084469;28;19931;-72
2023/03/09 05:25:29;;;;;;;;;;;0.90;99.90;;;;;;5013113;28;207441;-73
2023/03/09 05:27:55;;;;;;;;;;;0.90;99.90;;;;;;5074058;28;19991;-74
2023/03/09 05:30:21;;;;;;;;;;;1.00;99.90;;;;;;5010912;28;210114;-73
2023/03/09 05:32:49;;;;;;;;;;;0.90;99.90;;;;;;5065424;28;20329;-74
2023/03/09 05:35:16;;;;;;;;;;;0.90;99.90;;;;;;5003279;28;209347;-73
2023/03/09 05:37:43;;;;;;;;;;;0.90;99.90;;;;;;5065796;28;19941;-73
2023/03/09 05:40:10;;;;;;;;;;;0.90;99.90;;;;;;4993374;28;219538;-73
2023/03/09 05:42:36;;;;;;;;;;;0.90;99.90;;;;;;5077505;28;19924;-73
2023/03/09 05:45:04;;;;;;;;;;;1.00;99.90;;;;;;5024217;28;244070;-73
2023/03/09 05:47:30;;;;;;;;;;;0.90;99.90;;;;;;5084840;28;19935;-73
2023/03/09 05:49:56;;;;;;;;;;;1.00;99.90;;;;;;5012742;28;170750;-73
2023/03/09 05:52:22;;;;;;;;;;;0.90;99.90;;;;;;5067752;28;19938;-73
2023/03/09 05:54:55;;;;;;;;;;;0.90;99.90;;;;;;5023872;28;214262;-74
2023/03/09 05:57:21;;;;;;;;;;;1.00;99.90;;;;;;5073450;28;19924;-72
2023/03/09 05:59:47;;;;;;;;;;;1.00;99.90;;;;;;5018495;28;212591;-73
2023/03/09 06:02:13;;;;;;;;;;;1.00;99.90;;;;;;5079639;28;19920;-73
2023/03/09 06:04:39;;;;;;;;;;;1.00;99.90;;;;;;5005774;28;205362;-72
2023/03/09 06:07:08;;;;;;;;;;;0.90;99.90;;;;;;5094928;28;19924;-72
2023/03/09 06:09:37;;;;;;;;;;;1.00;99.90;;;;;;5038104;28;207137;-72
2023/03/09 06:12:03;;;;;;;;;;;1.10;99.90;;;;;;5094567;28;19920;-74
2023/03/09 06:14:30;;;;;;;;;;;1.00;99.90;;;;;;5028109;28;214900;-73
2023/03/09 06:16:56;;;;;;;;;;;1.10;99.90;;;;;;5076808;28;19951;-72
2023/03/09 06:19:22;;;;;;;;;;;1.10;99.90;;;;;;5008070;28;207643;-72
2023/03/09 06:21:48;;;;;;;;;;;1.10;99.90;;;;;;5062086;28;20020;-72
2023/03/09 06:24:14;;;;;;;;;;;1.10;99.90;;;;;;4995258;28;227852;-73
2023/03/09 06:26:40;;;;;;;;;;;1.10;99.90;;;;;;5048700;28;19929;-72
2023/03/09 06:29:06;;;;;;;;;;;1.10;99.90;;;;;;5019490;28;208836;-73
2023/03/09 06:31:32;;;;;;;;;;;1.10;99.90;;;;;;5075961;28;20352;-73
2023/03/09 06:33:58;;;;;;;;;;;1.10;99.90;;;;;;5024244;28;249175;-72
2023/03/09 06:36:24;;;;;;;;;;;1.20;99.90;;;;;;5092545;27;19925;-71
2023/03/09 06:38:50;;;;;;;;;;;1.20;99.90;;;;;;5015624;28;208343;-72
2023/03/09 06:41:16;;;;;;;;;;;1.20;99.90;;;;;;5053430;28;19920;-72
2023/03/09 06:43:45;;;;;;;;;;;1.20;99.90;;;;;;5012663;28;240106;-72
2023/03/09 06:46:11;;;;;;;;;;;1.20;99.90;;;;;;5061156;28;19935;-72
2023/03/09 06:48:36;;;;;;;;;;;1.20;99.90;;;;;;5023487;28;253921;-71
2023/03/09 06:51:02;;;;;;;;;;;1.20;99.90;;;;;;5074835;28;20485;-72
2023/03/09 06:53:28;;;;;;;;;;;1.30;99.90;;;;;;5067451;28;217255;-72
2023/03/09 06:55:57;;;;;;;;;;;1.20;99.90;;;;;;5009319;28;196850;-71
2023/03/09 06:58:23;;;;;;;;;;;1.30;99.90;;;;;;5077782;28;19927;-72
2023/03/09 07:00:50;;;;;;;;;;;1.40;99.90;;;;;;5031915;28;206355;-73
2023/03/09 07:03:17;;;;;;;;;;;1.30;99.90;;;;;;5074905;28;19932;-68
2023/03/09 07:05:43;;;;;;;;;;;1.40;99.90;;;;;;5016925;27;208793;-73
2023/03/09 07:08:09;;;;;;;;;;;1.50;99.90;;;;;;5065108;28;19924;-74
2023/03/09 07:10:35;;;;;;;;;;;1.50;99.90;;;;;;5008583;28;212023;-74
2023/03/09 07:13:01;;;;;;;;;;;1.50;99.90;;;;;;5060759;28;19924;-74
2023/03/09 07:15:27;;;;;;;;;;;1.70;99.90;;;;;;4993743;28;258523;-75
2023/03/09 07:17:53;;;;;;;;;;;1.60;99.90;;;;;;5056084;28;20352;-75
2023/03/09 07:20:19;;;;;;;;;;;1.70;99.90;;;;;;5002351;28;243728;-74
2023/03/09 07:22:45;;;;;;;;;;;1.70;99.90;;;;;;5075634;28;19966;-74
2023/03/09 07:25:11;;;;;;;;;;;1.60;99.90;;;;;;4992379;28;207459;-74
2023/03/09 07:27:37;;;;;;;;;;;1.70;99.90;;;;;;5056047;28;19935;-75
2023/03/09 07:30:03;;;;;;;;;;;1.80;99.90;;;;;;5002475;28;212758;-74
2023/03/09 07:32:30;;;;;;;;;;;1.80;99.90;;;;;;5073823;28;19936;-74
2023/03/09 07:34:56;;;;;;;;;;;1.80;99.90;;;;;;5025200;28;212135;-75
2023/03/09 07:37:22;;;;;;;;;;;1.90;99.90;;;;;;5076259;28;20331;-74
2023/03/09 07:39:48;;;;;;;;;;;2.00;99.90;;;;;;5037856;28;206071;-74
2023/03/09 07:42:14;;;;;;;;;;;2.10;99.90;;;;;;5074860;28;20010;-74
2023/03/09 07:44:40;;;;;;;;;;;2.10;99.90;;;;;;5033040;28;207279;-73
2023/03/09 07:47:06;;;;;;;;;;;2.20;99.90;;;;;;5086531;28;19930;-74
2023/03/09 07:49:32;;;;;;;;;;;2.30;99.90;;;;;;5011116;28;214349;-74
2023/03/09 07:51:58;;;;;;;;;;;2.40;99.90;;;;;;5063935;28;19932;-75
2023/03/09 07:54:24;;;;;;;;;;;2.40;99.90;;;;;;5004876;28;209344;-74
2023/03/09 07:56:51;;;;;;;;;;;2.40;99.90;;;;;;5055318;28;19924;-75
2023/03/09 07:59:17;;;;;;;;;;;2.40;99.90;;;;;;5023455;28;207816;-74
2023/03/09 08:01:43;;;;;;;;;;;2.40;99.90;;;;;;5089506;28;19943;-74
2023/03/09 08:04:09;;;;;;;;;;;2.50;99.90;;;;;;4996106;28;184962;-74
2023/03/09 08:06:39;;;;;;;;;;;2.50;99.90;;;;;;5051138;28;19932;-74
2023/03/09 08:09:06;;;;;;;;;;;2.50;99.90;;;;;;5019658;28;205177;-74
2023/03/09 08:11:33;;;;;;;;;;;2.50;99.90;;;;;;5096085;28;20669;-74
2023/03/09 08:13:59;;;;;;;;;;;2.50;99.90;;;;;;5022177;28;245689;-75
2023/03/09 08:16:25;;;;;;;;;;;2.50;99.90;;;;;;5075320;28;19928;-75
2023/03/09 08:18:51;;;;;;;;;;;2.60;99.90;;;;;;5036369;28;210327;-75
2023/03/09 08:21:17;;;;;;;;;;;2.60;99.90;;;;;;5063319;28;19935;-74
2023/03/09 08:23:46;;;;;;;;;;;2.60;99.90;;;;;;5000479;28;239331;-74
2023/03/09 08:26:13;;;;;;;;;;;2.70;99.90;;;;;;5068604;28;19927;-74
2023/03/09 08:28:40;;;;;;;;;;;2.60;99.90;;;;;;5001969;28;214959;-74
2023/03/09 08:31:08;;;;;;;;;;;2.70;99.90;;;;;;5055757;28;20422;-74
2023/03/09 08:33:34;;;;;;;;;;;2.70;99.90;;;;;;5016867;28;226946;-72
2023/03/09 08:36:09;;;;;;;;;;;2.80;99.90;;;;;;5043720;28;19940;-74
2023/03/09 08:38:35;;;;;;;;;;;2.80;99.90;;;;;;5026004;28;216068;-73
2023/03/09 08:41:02;;;;;;;;;;;2.80;99.90;;;;;;5005225;28;19951;-75
2023/03/09 08:43:28;;;;;;;;;;;2.80;99.90;;;;;;5046919;28;207152;-74
2023/03/09 08:45:54;;;;;;;;;;;2.90;99.90;;;;;;5013500;28;207538;-76
2023/03/09 08:48:20;;;;;;;;;;;2.90;99.90;;;;;;5067237;28;19939;-76
2023/03/09 08:50:46;;;;;;;;;;;3.00;99.90;;;;;;5020841;28;212355;-76
2023/03/09 08:53:12;;;;;;;;;;;3.00;99.90;;;;;;5062409;28;19931;-76
2023/03/09 08:55:38;;;;;;;;;;;3.10;99.90;;;;;;4974338;28;206086;-76
2023/03/09 08:58:04;;;;;;;;;;;3.00;99.90;;;;;;5059985;28;19935;-76
2023/03/09 09:00:30;;;;;;;;;;;3.10;99.90;;;;;;4992594;28;206539;-75
2023/03/09 09:02:56;;;;;;;;;;;3.10;99.90;;;;;;5057439;28;19932;-75
2023/03/09 09:05:22;;;;;;;;;;;3.10;99.90;;;;;;4964883;28;210198;-75
2023/03/09 09:07:48;;;;;;;;;;;3.20;99.90;;;;;;5055849;28;20255;-74
2023/03/09 09:10:14;;;;;;;;;;;3.20;99.90;;;;;;5011991;28;199004;-74
2023/03/09 09:12:40;;;;;;;;;;;3.20;99.90;;;;;;5076848;28;19928;-74
2023/03/09 09:15:09;;;;;;;;;;;3.30;99.90;;;;;;5000124;28;207253;-75
2023/03/09 09:17:36;;;;;;;;;;;3.30;99.90;;;;;;5063093;28;20004;-74
2023/03/09 09:20:03;;;;;;;;;;;3.40;99.90;;;;;;5006010;28;222031;-75
2023/03/09 09:22:29;;;;;;;;;;;3.40;99.90;;;;;;5053527;28;20566;-75
2023/03/09 09:24:55;;;;;;;;;;;3.50;99.90;;;;;;4992718;28;206814;-75
2023/03/09 09:27:21;;;;;;;;;;;3.50;99.90;;;;;;5052389;28;19936;-75
2023/03/09 09:29:47;;;;;;;;;;;3.50;99.90;;;;;;5004465;28;207721;-75
2023/03/09 09:32:13;;;;;;;;;;;3.50;99.90;;;;;;5074464;28;19966;-75
2023/03/09 09:34:38;;;;;;;;;;;3.50;99.90;;;;;;5019976;28;206678;-74
2023/03/09 09:37:05;;;;;;;;;;;3.60;99.90;;;;;;5062032;28;19924;-76
2023/03/09 09:39:32;;;;;;;;;;;3.60;99.90;;;;;;5011393;28;205698;-75
2023/03/09 09:42:00;;;;;;;;;;;3.80;99.90;;;;;;5067332;28;19956;-75
2023/03/09 09:44:40;;;;;;;;;;;3.80;99.90;;;;;;5007185;28;207109;-75
2023/03/09 09:47:10;;;;;;;;;;;3.90;99.90;;;;;;5064525;28;19928;-75
2023/03/09 09:49:41;;;;;;;;;;;4.00;99.90;;;;;;5000749;28;205750;-75
2023/03/09 09:52:25;;;;;;;;;;;4.10;99.90;;;;;;5053106;28;20380;-74
2023/03/09 09:54:55;;;;;;;;;;;4.30;99.90;;;;;;5011239;28;206947;-76
2023/03/09 09:57:42;;;;;;;;;;;4.40;99.90;;;;;;5063861;28;19928;-75
2023/03/09 10:00:13;;;;;;;;;;;4.50;99.90;;;;;;5000004;28;202786;-75
2023/03/09 10:02:45;;;;;;;;;;;4.60;99.90;;;;;;5067789;28;19920;-74
2023/03/09 10:05:17;;;;;;;;;;;4.70;99.90;;;;;;4990351;28;182119;-75
2023/03/09 10:07:43;;;;;;;;;;;4.80;99.90;;;;;;5058238;28;19932;-75
2023/03/09 10:10:20;;;;;;;;;;;4.90;99.90;;;;;;5001285;28;207870;-75
2023/03/09 10:12:46;;;;;;;;;;;5.20;99.90;;;;;;5074228;28;19931;-74
2023/03/09 10:15:18;;;;;;;;;;;5.30;99.90;;;;;;5017342;28;208772;-75
2023/03/09 10:18:22;;;;;;;;;;;5.20;99.90;;;;;;5059218;28;19954;-74
2023/03/09 10:20:52;;;;;;;;;;;5.20;99.90;;;;;;4960829;28;206438;-75
2023/03/09 10:23:34;;;;;;;;;;;5.30;99.90;;;;;;5013853;28;19926;-75
2023/03/09 10:26:20;;;;;;;;;;;5.30;99.90;;;;;;4940317;28;165479;-75
2023/03/09 10:28:49;;;;;;;;;;;5.40;99.90;;;;;;4945467;28;219122;-75
2023/03/09 10:31:21;;;;;;;;;;;5.50;99.90;;;;;;5018446;28;20015;-75
2023/03/09 10:33:48;;;;;;;;;;;5.60;99.90;;;;;;4970549;28;168605;-75
2023/03/09 10:36:23;;;;;;;;;;;5.70;99.90;;;;;;4983143;28;19944;-75
2023/03/09 10:38:49;;;;;;;;;;;5.80;99.90;;;;;;4959664;28;217602;-74
2023/03/09 10:41:16;;;;;;;;;;;6.00;99.90;;;;;;5000345;28;19922;-74
2023/03/09 10:43:42;;;;;;;;;;;6.10;99.90;;;;;;4930117;28;209659;-73
2023/03/09 10:46:21;;;;;;;;;;;6.10;99.90;;;;;;5013510;28;19922;-75
2023/03/09 10:48:48;;;;;;;;;;;6.10;99.90;;;;;;4960238;28;193304;-74
2023/03/09 10:51:23;;;;;;;;;;;6.00;99.90;;;;;;4988018;28;20028;-75
2023/03/09 10:53:49;;;;;;;;;;;6.00;99.90;;;;;;4973449;28;164000;-75
2023/03/09 10:56:15;;;;;;;;;;;5.80;99.90;;;;;;5047212;28;19924;-75
2023/03/09 10:58:41;;;;;;;;;;;5.60;99.90;;;;;;5006895;28;228434;-75
2023/03/09 11:01:10;;;;;;;;;;;5.60;99.90;;;;;;5053304;28;19920;-75
2023/03/09 11:03:37;;;;;;;;;;;5.60;99.90;;;;;;5001207;28;219595;-75
2023/03/09 11:06:16;;;;;;;;;;;5.80;99.90;;;;;;5023583;28;118412;-75
2023/03/09 11:08:42;;;;;;;;;;;5.90;99.90;;;;;;5014454;28;282334;-75
2023/03/09 11:11:35;;;;;;;;;;;6.00;99.90;;;;;;5030610;28;19932;-76
2023/03/09 11:14:01;;;;;;;;;;;6.10;99.90;;;;;;4992204;28;168884;-75
2023/03/09 11:16:28;;;;;;;;;;;6.10;99.90;;;;;;5026375;28;19925;-75
2023/03/09 11:19:05;;;;;;;;;;;6.10;99.90;;;;;;5010607;28;137140;-74
2023/03/09 11:21:31;;;;;;;;;;;6.30;99.90;;;;;;5058214;28;19925;-75
2023/03/09 11:24:00;;;;;;;;;;;6.60;99.90;;;;;;5000972;28;208471;-75
2023/03/09 11:26:36;;;;;;;;;;;6.80;99.90;;;;;;5043512;28;20342;-75
2023/03/09 11:29:29;;;;;;;;;;;6.90;99.90;;;;;;5005797;28;206691;-75
2023/03/09 11:31:55;;;;;;;;;;;6.90;99.90;;;;;;5042939;28;19928;-75
2023/03/09 11:34:26;;;;;;;;;;;7.00;99.90;;;;;;5005044;28;207486;-74
2023/03/09 11:37:07;;;;;;;;;;;6.90;99.90;;;;;;5059555;28;20039;-75
2023/03/09 11:39:35;;;;;;;;;;;6.80;99.90;;;;;;5005447;28;208698;-74
2023/03/09 11:42:04;;;;;;;;;;;6.70;99.90;;;;;;5046469;28;19920;-76
2023/03/09 11:44:38;;;;;;;;;;;6.70;99.90;;;;;;5022117;28;181041;-75
2023/03/09 11:47:18;;;;;;;;;;;6.60;99.90;;;;;;5050450;28;19928;-75
2023/03/09 11:49:44;;;;;;;;;;;6.50;99.90;;;;;;5019146;28;213458;-75
2023/03/09 11:52:16;;;;;;;;;;;6.40;99.90;;;;;;5082686;28;20023;-75
2023/03/09 11:54:44;;;;;;;;;;;6.20;99.90;;;;;;5020225;28;239197;-75
2023/03/09 11:57:14;;;;;;;;;;;6.20;99.90;;;;;;5061934;28;19924;-75
2023/03/09 11:59:52;;;;;;;;;;;6.10;99.90;;;;;;4997071;28;229576;-74
2023/03/09 12:02:25;;;;;;;;;;;6.20;99.90;;;;;;5050160;28;19925;-75
2023/03/09 12:04:52;;;;;;;;;;;6.20;99.90;;;;;;4969392;28;208271;-75
2023/03/09 12:07:28;;;;;;;;;;;6.10;99.90;;;;;;5063350;28;19931;-75
2023/03/09 12:10:12;;;;;;;;;;;6.00;99.90;;;;;;5005506;28;186229;-76
2023/03/09 12:12:41;;;;;;;;;;;6.00;99.90;;;;;;5054305;28;19929;-75
2023/03/09 12:15:23;;;;;;;;;;;6.00;99.90;;;;;;5025757;28;213666;-75
2023/03/09 12:17:59;;;;;;;;;;;6.00;99.90;;;;;;5073165;28;20277;-75
2023/03/09 12:20:28;;;;;;;;;;;6.10;99.90;;;;;;5024360;28;214119;-75
2023/03/09 12:22:55;;;;;;;;;;;6.00;99.90;;;;;;5058546;28;19928;-74
2023/03/09 12:25:22;;;;;;;;;;;6.00;99.90;;;;;;5014670;28;212814;-76
2023/03/09 12:27:53;;;;;;;;;;;5.90;99.90;;;;;;5061403;28;19951;-76
2023/03/09 12:30:30;;;;;;;;;;;5.90;99.90;;;;;;5006501;28;215926;-77
2023/03/09 12:33:00;;;;;;;;;;;5.90;99.90;;;;;;5060633;28;19929;-76
2023/03/09 12:35:25;;;;;;;;;;;6.00;99.90;;;;;;4999147;28;207153;-76
2023/03/09 12:37:54;;;;;;;;;;;6.00;99.90;;;;;;5062086;28;20343;-76
2023/03/09 12:40:26;;;;;;;;;;;6.00;99.90;;;;;;5034988;28;220347;-76
2023/03/09 12:42:53;;;;;;;;;;;6.00;99.90;;;;;;5075792;28;20464;-76
2023/03/09 12:45:27;;;;;;;;;;;6.10;99.90;;;;;;5007852;28;206259;-74
2023/03/09 12:48:11;;;;;;;;;;;6.10;99.90;;;;;;5064123;28;19931;-76
2023/03/09 12:50:37;;;;;;;;;;;6.00;99.90;;;;;;5031406;28;161225;-76
2023/03/09 12:53:06;;;;;;;;;;;6.00;99.90;;;;;;5059586;28;19924;-75
2023/03/09 12:55:35;;;;;;;;;;;5.90;99.90;;;;;;5022945;28;220839;-76
2023/03/09 12:58:22;;;;;;;;;;;5.90;99.90;;;;;;5079872;28;19931;-76
2023/03/09 13:00:48;;;;;;;;;;;5.80;99.90;;;;;;4991206;28;206350;-75
2023/03/09 13:03:16;;;;;;;;;;;5.70;99.90;;;;;;5063600;28;20110;-75
2023/03/09 13:05:45;;;;;;;;;;;5.60;99.90;;;;;;4977325;28;215252;-75
2023/03/09 13:08:30;;;;;;;;;;;5.60;99.90;;;;;;5065251;28;19920;-75
2023/03/09 13:11:15;;;;;;;;;;;5.60;99.90;;;;;;4976347;28;231521;-75
2023/03/09 13:13:41;;;;;;;;;;;5.50;99.90;;;;;;5021066;28;209730;-75
2023/03/09 13:16:26;;;;;;;;;;;5.50;99.90;;;;;;5048146;28;19935;-75
2023/03/09 13:19:12;;;;;;;;;;;5.50;99.90;;;;;;5026463;28;208600;-76
2023/03/09 13:21:46;;;;;;;;;;;5.50;99.90;;;;;;5073923;28;19928;-74
2023/03/09 13:24:14;;;;;;;;;;;5.60;99.90;;;;;;5025762;28;199332;-75
2023/03/09 13:26:42;;;;;;;;;;;5.60;99.90;;;;;;5058374;28;19925;-75
2023/03/09 13:29:09;;;;;;;;;;;5.60;99.90;;;;;;5012050;28;212381;-75
2023/03/09 13:31:35;;;;;;;;;;;5.60;99.90;;;;;;5037111;28;19931;-75
2023/03/09 13:34:02;;;;;;;;;;;5.50;99.90;;;;;;5012905;28;251653;-75
2023/03/09 13:36:29;;;;;;;;;;;5.50;99.90;;;;;;5046925;28;19921;-76
2023/03/09 13:39:04;;;;;;;;;;;5.40;99.90;;;;;;4988446;28;192572;-75
2023/03/09 13:41:31;;;;;;;;;;;5.40;99.90;;;;;;5022491;28;20357;-75
2023/03/09 13:43:58;;;;;;;;;;;5.40;99.90;;;;;;5001192;28;213669;-75
2023/03/09 13:46:27;;;;;;;;;;;5.40;99.90;;;;;;5064717;28;19924;-76
2023/03/09 13:48:55;;;;;;;;;;;5.30;99.90;;;;;;5031400;28;180117;-76
2023/03/09 13:51:26;;;;;;;;;;;5.30;99.90;;;;;;5082398;28;19921;-75
2023/03/09 13:53:52;;;;;;;;;;;5.30;99.90;;;;;;5007117;28;80083;-75
2023/03/09 13:56:19;;;;;;;;;;;5.30;99.90;;;;;;5040149;28;20305;-76
2023/03/09 13:58:46;;;;;;;;;;;5.20;99.90;;;;;;5009430;28;208881;-75
2023/03/09 14:01:19;;;;;;;;;;;5.20;99.90;;;;;;5062931;28;19920;-76
2023/03/09 14:03:47;;;;;;;;;;;5.10;99.90;;;;;;4996716;28;215673;-76
2023/03/09 14:06:13;;;;;;;;;;;5.00;99.90;;;;;;5056396;28;19951;-77
2023/03/09 14:08:43;;;;;;;;;;;5.00;99.90;;;;;;5012165;28;208145;-76
2023/03/09 14:11:15;;;;;;;;;;;5.00;99.90;;;;;;5032909;28;19924;-74
2023/03/09 14:13:47;;;;;;;;;;;5.00;99.90;;;;;;4987485;28;208455;-77
2023/03/09 14:16:14;;;;;;;;;;;5.00;99.90;;;;;;5019561;28;19928;-77
2023/03/09 14:18:42;;;;;;;;;;;4.90;99.90;;;;;;5004269;28;209345;-76
2023/03/09 14:21:26;;;;;;;;;;;4.90;99.90;;;;;;5052516;28;19920;-75
2023/03/09 14:23:52;;;;;;;;;;;4.80;99.90;;;;;;5006280;28;215396;-75
2023/03/09 14:26:27;;;;;;;;;;;4.70;99.90;;;;;;5061704;28;19924;-75
2023/03/09 14:29:12;;;;;;;;;;;4.80;99.90;;;;;;4996291;28;208929;-75